KLIT/LIT METAR and TAF weather

Enter ICAO airport designator
Station Type Date Time Source
KLIT METAR 2020/09/22 22:53 UTC NOAA

KLIT 222253Z 09005KT 5SM RA BR SCT009 BKN050 OVC110 18/17 A3011 RMK AO2 SLP197 P0008 T01780167 $


Station Type Date Time Source
KLIT Decoded METAR 2020/09/22 22:53 UTC NOAA

LITTLE ROCK ADAMS FIELD, AR, United States (KLIT) 34-44N 92-14W 79M
Sep 22, 2020 - 06:53 PM EDT / 2020.09.22 2253 UTC
Wind: from the E (090 degrees) at 6 MPH (5 KT):0
Visibility: 5 mile(s):0
Sky conditions: overcast
Weather: rain; mist
Precipitation last hour: 0.08 inches
Temperature: 64.0 F (17.8 C)
Dew Point: 62.1 F (16.7 C)
Relative Humidity: 93%
Pressure (altimeter): 30.11 in. Hg (1019 hPa)
ob: KLIT 222253Z 09005KT 5SM RA BR SCT009 BKN050 OVC110 18/17 A3011 RMK AO2 SLP197 P0008 T01780167
cycle: 23

Station Type Date Time Source
KLIT TAF 2020/09/22 22:09 UTC NOAA

TAF
AMD KLIT 222207Z 2222/2318 08008KT 6SM -RA BR BKN015 OVC050
TEMPO 2222/2302 2SM SHRA BR BKN008 OVC015
FM230200 04006KT 4SM -SHRA BR OVC015
FM231000 05005KT 5SM -SHRA OVC010
FM231400 06007KT 4SM -SHRA OVC008

Example: see airport list